Pagrindinis puslapis
METAR-TAF:

METAR-TAF

Oro uostai :

Arctic Village, Aliaska, Jungtinės Amerikos Valstijos

platuma: 68-06-52N, ilguma: 145-34-45W, Aukštis: 638 m

Dabartinis oras

Ataskaita buvo paskelbta 22 minutes, ne 19:56 UTC
Ramus vėjas
Temperatūra -22°C
Drėgmė 84%
Slėgis 1012 hPa
Matomumas: 6.4 km
Giedras dangus
sniegas, rūkana

METAR: PARC 281956Z AUTO 00000KT 4SM -SN BR CLR M22/M24 A2987 RMK AO2 SNB40 SLP206 P0000 T12171239 FZRANO

Laikas: 12:18 (20:18 UTC)


TAF: trūkstamas

Orai ataskaitas ir orų prognozės (METAR, TAF).

turimą stotys yra geltonos ir raudonos taškus žemėlapyje.

Perkelti pele per norėdami pamatyti stoties vardą.

Tada spustelėkite, norėdami matyti oro stebėjimo ir prognozės.

Norėdami pakeisti žemėlapį: spustelėkite ant žalios mygtukų su juodo kryžiaus žemyn,; žalią mygtuką su brūkšneliu, jei norite nutolinti; arba žalių rodyklių gretimoms žemėlapius.


METAR-TAF: